createdAt,value
2018-05-31T00:00:05.919Z,0.00
2018-05-31T00:01:05.913Z,0.00
2018-05-31T00:02:05.917Z,0.00
2018-05-31T00:03:05.881Z,0.00
2018-05-31T00:04:05.877Z,0.00
2018-05-31T00:05:05.857Z,0.00
2018-05-31T00:06:05.845Z,0.00
2018-05-31T00:07:05.840Z,0.00
2018-05-31T00:08:05.830Z,0.00
2018-05-31T00:09:05.809Z,0.00
2018-05-31T00:10:05.797Z,0.00
2018-05-31T00:11:05.784Z,0.00
2018-05-31T00:12:05.771Z,0.00
2018-05-31T00:13:05.762Z,0.00
2018-05-31T00:14:05.749Z,0.00
2018-05-31T00:15:05.736Z,0.00
2018-05-31T00:16:05.727Z,0.00
2018-05-31T00:17:05.717Z,0.00
2018-05-31T00:18:05.698Z,0.00
2018-05-31T00:19:05.688Z,0.00
2018-05-31T00:20:05.675Z,0.00
2018-05-31T00:21:05.666Z,0.00
2018-05-31T00:22:05.656Z,0.00
2018-05-31T00:23:05.643Z,0.00
2018-05-31T00:24:05.626Z,0.00
2018-05-31T00:25:05.638Z,0.00
2018-05-31T00:26:05.608Z,0.00
2018-05-31T00:27:05.586Z,0.00
2018-05-31T00:28:05.589Z,0.00
2018-05-31T00:29:05.560Z,0.00
2018-05-31T00:30:05.551Z,0.00
2018-05-31T00:31:05.541Z,0.00
2018-05-31T00:32:05.525Z,0.00
2018-05-31T00:33:05.525Z,0.00
2018-05-31T00:34:05.506Z,0.00
2018-05-31T00:35:05.491Z,0.00
2018-05-31T00:36:05.483Z,0.00
2018-05-31T00:37:05.483Z,0.00
2018-05-31T00:38:05.455Z,0.00
2018-05-31T00:39:05.445Z,0.00
2018-05-31T00:40:05.422Z,0.00
2018-05-31T00:41:05.427Z,0.00
2018-05-31T00:42:05.397Z,0.00
2018-05-31T00:43:05.395Z,0.00
2018-05-31T00:44:05.390Z,0.00
2018-05-31T00:45:05.358Z,0.00
2018-05-31T00:46:05.349Z,0.00
2018-05-31T00:47:05.345Z,0.00
2018-05-31T00:48:05.341Z,0.00
2018-05-31T00:49:05.313Z,0.00
2018-05-31T00:50:05.304Z,0.00
2018-05-31T00:51:05.291Z,0.00
2018-05-31T00:52:05.285Z,0.00
2018-05-31T00:53:05.263Z,0.00
2018-05-31T00:54:05.267Z,0.00
2018-05-31T00:55:05.238Z,0.00
2018-05-31T00:56:05.225Z,0.00
2018-05-31T00:57:05.218Z,0.00
2018-05-31T00:58:05.207Z,0.00
2018-05-31T00:59:05.194Z,0.00
2018-05-31T01:00:05.210Z,0.00
2018-05-31T01:01:05.177Z,0.00
2018-05-31T01:02:05.167Z,0.00
2018-05-31T01:03:05.132Z,0.00
2018-05-31T01:04:05.127Z,0.00
2018-05-31T01:05:05.112Z,0.00
2018-05-31T01:06:05.104Z,0.00
2018-05-31T01:07:05.091Z,0.00
2018-05-31T01:08:05.085Z,0.00
2018-05-31T01:09:05.063Z,0.00
2018-05-31T01:10:05.050Z,0.00
2018-05-31T01:11:05.041Z,0.00
2018-05-31T01:12:05.034Z,0.00
2018-05-31T01:13:05.019Z,0.00
2018-05-31T01:14:04.999Z,0.00
2018-05-31T01:15:05.009Z,0.00
2018-05-31T01:16:04.974Z,0.00
2018-05-31T01:17:04.960Z,0.00
2018-05-31T01:18:04.960Z,0.00
2018-05-31T01:19:04.943Z,0.00
2018-05-31T01:20:04.923Z,0.00
2018-05-31T01:21:04.910Z,0.00
2018-05-31T01:22:04.891Z,0.00
2018-05-31T01:23:04.890Z,0.00
2018-05-31T01:24:04.876Z,0.00
2018-05-31T01:25:04.864Z,0.00
2018-05-31T01:26:04.847Z,0.00
2018-05-31T01:27:04.832Z,0.00
2018-05-31T01:28:04.822Z,0.00
2018-05-31T01:29:04.803Z,0.00
2018-05-31T01:30:04.793Z,0.00
2018-05-31T01:31:04.787Z,0.00
2018-05-31T01:32:04.829Z,0.00
2018-05-31T01:33:04.759Z,0.00
2018-05-31T01:34:04.752Z,0.00
2018-05-31T01:35:04.739Z,0.00
2018-05-31T01:36:04.719Z,0.00
2018-05-31T01:37:04.710Z,0.00
2018-05-31T01:38:04.698Z,0.00
2018-05-31T01:39:04.679Z,0.00
2018-05-31T01:40:04.669Z,0.00
2018-05-31T01:41:04.654Z,0.00
2018-05-31T01:42:04.647Z,0.00
2018-05-31T01:43:04.631Z,0.00
2018-05-31T01:44:04.637Z,0.00
2018-05-31T01:45:04.609Z,0.00
2018-05-31T01:46:04.599Z,0.00
2018-05-31T01:47:04.583Z,0.00
2018-05-31T01:48:04.577Z,0.00
2018-05-31T01:49:04.558Z,0.00
2018-05-31T01:50:04.538Z,0.00
2018-05-31T01:51:04.550Z,0.00
2018-05-31T01:52:04.519Z,0.00
2018-05-31T01:53:04.506Z,0.00
2018-05-31T01:54:04.496Z,0.00
2018-05-31T01:55:04.493Z,0.00
2018-05-31T01:56:04.467Z,0.00
2018-05-31T01:57:04.456Z,0.00
2018-05-31T01:58:04.442Z,0.00
2018-05-31T01:59:04.431Z,0.00
2018-05-31T02:00:04.419Z,0.00
2018-05-31T02:01:04.409Z,0.00
2018-05-31T02:02:04.394Z,0.00
2018-05-31T02:03:04.391Z,0.00
2018-05-31T02:04:04.371Z,0.00
2018-05-31T02:05:04.366Z,0.00
2018-05-31T02:06:04.350Z,0.00
2018-05-31T02:07:04.333Z,0.00
2018-05-31T02:08:04.326Z,0.00
2018-05-31T02:09:04.311Z,0.00
2018-05-31T02:10:04.314Z,0.00
2018-05-31T02:11:04.285Z,0.00
2018-05-31T02:12:04.274Z,0.00
2018-05-31T02:13:04.265Z,0.00
2018-05-31T02:14:04.249Z,0.00
2018-05-31T02:15:04.246Z,0.00
2018-05-31T02:16:04.230Z,0.00
2018-05-31T02:17:04.228Z,0.00
2018-05-31T02:18:04.207Z,0.00
2018-05-31T02:19:04.187Z,0.00
2018-05-31T02:20:04.194Z,0.00
2018-05-31T02:21:04.165Z,0.00
2018-05-31T02:22:04.149Z,0.00
2018-05-31T02:23:04.162Z,0.00
2018-05-31T02:24:04.126Z,0.00
2018-05-31T02:25:04.117Z,0.00
2018-05-31T02:26:04.101Z,0.00
2018-05-31T02:27:04.094Z,0.00
2018-05-31T02:28:04.085Z,0.00
2018-05-31T02:29:04.066Z,0.00
2018-05-31T02:30:04.053Z,0.00
2018-05-31T02:31:04.047Z,0.00
2018-05-31T02:32:04.031Z,0.00
2018-05-31T02:33:04.017Z,0.00
2018-05-31T02:34:04.005Z,0.00
2018-05-31T02:35:03.992Z,0.00
2018-05-31T02:36:03.985Z,0.00
2018-05-31T02:37:03.966Z,0.00
2018-05-31T02:38:03.963Z,0.00
2018-05-31T02:39:03.947Z,0.00
2018-05-31T02:40:03.935Z,0.00
2018-05-31T02:41:03.919Z,0.00
2018-05-31T02:42:03.912Z,0.00
2018-05-31T02:43:03.899Z,0.00
2018-05-31T02:44:03.893Z,0.00
2018-05-31T02:45:03.883Z,0.00
2018-05-31T02:46:03.867Z,0.00
2018-05-31T02:47:03.851Z,0.00
2018-05-31T02:48:03.836Z,0.00
2018-05-31T02:49:03.839Z,0.00
2018-05-31T02:50:03.816Z,0.00
2018-05-31T02:51:03.803Z,0.00
2018-05-31T02:52:03.795Z,0.00
2018-05-31T02:53:03.777Z,0.00
2018-05-31T02:54:03.764Z,0.00
2018-05-31T02:55:03.755Z,0.00
2018-05-31T02:56:03.746Z,0.00
2018-05-31T02:57:03.726Z,0.00
2018-05-31T02:58:03.713Z,0.00
2018-05-31T02:59:03.707Z,0.00
2018-05-31T03:00:03.691Z,0.00
2018-05-31T03:01:03.676Z,0.00
2018-05-31T03:02:03.668Z,0.00
2018-05-31T03:03:03.661Z,0.00
2018-05-31T03:04:03.643Z,0.00
2018-05-31T03:05:03.628Z,0.00
2018-05-31T03:06:03.620Z,0.00
2018-05-31T03:07:03.613Z,0.00
2018-05-31T03:08:03.595Z,0.00
2018-05-31T03:09:03.578Z,0.00
2018-05-31T03:10:03.601Z,0.00
2018-05-31T03:11:03.553Z,0.00
2018-05-31T03:12:03.543Z,0.00
2018-05-31T03:13:03.552Z,5.63
2018-05-31T03:14:03.518Z,5.63
2018-05-31T03:15:03.504Z,5.63
2018-05-31T03:16:03.495Z,5.63
2018-05-31T03:17:03.478Z,5.63
2018-05-31T03:18:03.468Z,5.63
2018-05-31T03:19:03.458Z,5.63
2018-05-31T03:20:03.443Z,5.63
2018-05-31T03:21:03.445Z,5.63
2018-05-31T03:22:03.414Z,11.25
2018-05-31T03:23:03.400Z,11.25
2018-05-31T03:24:03.397Z,11.25
2018-05-31T03:25:03.381Z,16.88
2018-05-31T03:26:03.369Z,16.88
2018-05-31T03:27:03.351Z,22.50
2018-05-31T03:28:03.340Z,22.50
2018-05-31T03:29:03.330Z,22.50
2018-05-31T03:30:03.318Z,22.50
2018-05-31T03:31:03.305Z,22.50
2018-05-31T03:32:03.295Z,28.13
2018-05-31T03:33:03.276Z,28.13
2018-05-31T03:34:03.267Z,28.13
2018-05-31T03:35:03.258Z,33.75
2018-05-31T03:36:03.242Z,33.75
2018-05-31T03:37:03.225Z,39.38
2018-05-31T03:38:03.212Z,39.38
2018-05-31T03:39:03.201Z,45.00
2018-05-31T03:40:03.203Z,50.63
2018-05-31T03:41:03.177Z,50.63
2018-05-31T03:42:03.187Z,56.25
2018-05-31T03:43:03.152Z,56.25
2018-05-31T03:44:03.136Z,61.88
2018-05-31T03:45:03.130Z,61.88
2018-05-31T03:46:03.116Z,61.88
2018-05-31T03:47:03.102Z,67.50
2018-05-31T03:48:03.087Z,67.50
2018-05-31T03:49:03.072Z,67.50
2018-05-31T03:50:03.067Z,73.13
2018-05-31T03:51:03.050Z,73.13
2018-05-31T03:52:03.044Z,73.13
2018-05-31T03:53:03.018Z,73.13
2018-05-31T03:54:03.009Z,78.75
2018-05-31T03:55:02.999Z,78.75
2018-05-31T03:56:02.985Z,78.75
2018-05-31T03:57:02.973Z,78.75
2018-05-31T03:58:02.960Z,78.75
2018-05-31T03:59:02.951Z,78.75
2018-05-31T04:00:02.941Z,84.38
2018-05-31T04:01:02.923Z,84.38
2018-05-31T04:02:02.915Z,84.38
2018-05-31T04:03:02.899Z,84.38
2018-05-31T04:04:02.887Z,90.00
2018-05-31T04:05:02.868Z,90.00
2018-05-31T04:06:02.858Z,90.00
2018-05-31T04:07:02.849Z,95.63
2018-05-31T04:08:02.839Z,95.63
2018-05-31T04:09:02.827Z,95.63
2018-05-31T04:10:02.813Z,95.63
2018-05-31T04:11:02.795Z,95.63
2018-05-31T04:12:02.782Z,95.63
2018-05-31T04:13:02.799Z,101.25
2018-05-31T04:14:02.758Z,101.25
2018-05-31T04:15:02.747Z,101.25
2018-05-31T04:16:02.737Z,101.25
2018-05-31T04:17:02.718Z,101.25
2018-05-31T04:18:02.714Z,101.25
2018-05-31T04:19:02.698Z,106.88
2018-05-31T04:20:02.683Z,106.88
2018-05-31T04:21:02.677Z,106.88
2018-05-31T04:22:02.660Z,106.88
2018-05-31T04:23:02.652Z,106.88
2018-05-31T04:24:02.642Z,106.88
2018-05-31T04:25:02.626Z,106.88
2018-05-31T04:26:02.616Z,106.88
2018-05-31T04:27:02.599Z,101.25
2018-05-31T04:28:02.581Z,101.25
2018-05-31T04:29:02.568Z,101.25
2018-05-31T04:30:02.561Z,101.25
2018-05-31T04:31:02.545Z,101.25
2018-05-31T04:32:02.539Z,106.88
2018-05-31T04:33:02.520Z,106.88
2018-05-31T04:34:02.511Z,106.88
2018-05-31T04:35:02.499Z,112.50
2018-05-31T04:36:02.498Z,112.50
2018-05-31T04:37:02.474Z,112.50
2018-05-31T04:38:02.461Z,118.13
2018-05-31T04:39:02.450Z,118.13
2018-05-31T04:40:02.439Z,118.13
2018-05-31T04:41:02.420Z,118.13
2018-05-31T04:42:02.413Z,123.75
2018-05-31T04:43:02.394Z,123.75
2018-05-31T04:44:02.400Z,123.75
2018-05-31T04:45:02.378Z,129.38
2018-05-31T04:46:02.365Z,129.38
2018-05-31T04:47:02.350Z,135.00
2018-05-31T04:48:02.337Z,140.63
2018-05-31T04:49:02.326Z,146.25
2018-05-31T04:50:02.308Z,151.88
2018-05-31T04:51:02.302Z,157.50
2018-05-31T04:52:02.286Z,157.50
2018-05-31T04:53:02.280Z,163.13
2018-05-31T04:54:02.286Z,163.13
2018-05-31T04:55:02.248Z,168.75
2018-05-31T04:56:02.241Z,168.75
2018-05-31T04:57:02.227Z,174.38
2018-05-31T04:58:02.215Z,174.38
2018-05-31T04:59:02.206Z,180.00
2018-05-31T05:00:02.198Z,185.63
2018-05-31T05:01:02.174Z,185.63
2018-05-31T05:02:02.167Z,185.63
2018-05-31T05:03:02.198Z,185.63
2018-05-31T05:04:02.164Z,185.63
2018-05-31T05:05:02.136Z,180.00
2018-05-31T05:06:02.113Z,180.00
2018-05-31T05:07:02.101Z,180.00
2018-05-31T05:08:02.091Z,180.00
2018-05-31T05:09:02.077Z,180.00
2018-05-31T05:10:02.070Z,174.38
2018-05-31T05:11:02.058Z,168.75
2018-05-31T05:12:02.042Z,168.75
2018-05-31T05:13:02.030Z,168.75
2018-05-31T05:14:02.026Z,163.13
2018-05-31T05:15:02.008Z,157.50
2018-05-31T05:16:01.994Z,157.50
2018-05-31T05:17:01.984Z,151.88
2018-05-31T05:18:01.980Z,151.88
2018-05-31T05:19:01.959Z,146.25
2018-05-31T05:20:01.956Z,146.25
2018-05-31T05:21:01.934Z,146.25
2018-05-31T05:22:01.924Z,146.25
2018-05-31T05:23:01.914Z,146.25
2018-05-31T05:24:01.921Z,151.88
2018-05-31T05:25:01.892Z,151.88
2018-05-31T05:26:01.881Z,151.88
2018-05-31T05:27:01.862Z,157.50
2018-05-31T05:28:01.879Z,157.50
2018-05-31T05:29:01.849Z,157.50
2018-05-31T05:30:01.843Z,157.50
2018-05-31T05:31:01.828Z,157.50
2018-05-31T05:32:01.829Z,163.13
2018-05-31T05:33:01.801Z,168.75
2018-05-31T05:34:01.785Z,174.38
2018-05-31T05:35:01.773Z,180.00
2018-05-31T05:36:01.766Z,185.63
2018-05-31T05:37:01.747Z,191.25
2018-05-31T05:38:01.740Z,196.88
2018-05-31T05:39:01.736Z,213.75
2018-05-31T05:40:01.718Z,230.63
2018-05-31T05:41:01.709Z,247.50
2018-05-31T05:42:01.696Z,258.75
2018-05-31T05:43:01.689Z,258.75
2018-05-31T05:44:01.676Z,264.38
2018-05-31T05:45:01.668Z,270.00
2018-05-31T05:46:01.647Z,275.63
2018-05-31T05:47:01.648Z,270.00
2018-05-31T05:48:01.625Z,275.63
2018-05-31T05:49:01.638Z,275.63
2018-05-31T05:50:01.612Z,281.25
2018-05-31T05:51:01.600Z,292.50
2018-05-31T05:52:01.615Z,303.75
2018-05-31T05:53:01.576Z,303.75
2018-05-31T05:54:01.568Z,275.63
2018-05-31T05:55:01.549Z,258.75
2018-05-31T05:56:01.542Z,270.00
2018-05-31T05:57:01.532Z,253.13
2018-05-31T05:58:01.532Z,264.38
2018-05-31T05:59:01.507Z,264.38
2018-05-31T06:00:01.497Z,270.00
2018-05-31T06:01:01.494Z,275.63
2018-05-31T06:02:01.478Z,298.13
2018-05-31T06:03:01.466Z,315.00
2018-05-31T06:04:01.462Z,337.50
2018-05-31T06:05:01.461Z,360.00
2018-05-31T06:06:01.433Z,382.50
2018-05-31T06:07:01.443Z,393.75
2018-05-31T06:08:01.421Z,410.63
2018-05-31T06:09:01.413Z,421.88
2018-05-31T06:10:01.462Z,427.50
2018-05-31T06:11:01.391Z,433.13
2018-05-31T06:12:01.381Z,438.75
2018-05-31T06:13:01.375Z,444.38
2018-05-31T06:14:01.359Z,450.00
2018-05-31T06:15:01.350Z,461.25
2018-05-31T06:16:01.347Z,466.88
2018-05-31T06:17:01.335Z,489.38
2018-05-31T06:18:01.347Z,495.00
2018-05-31T06:19:01.322Z,500.63
2018-05-31T06:20:01.319Z,511.88
2018-05-31T06:21:01.299Z,495.00
2018-05-31T06:22:01.296Z,483.75
2018-05-31T06:23:01.286Z,472.50
2018-05-31T06:24:01.279Z,455.63
2018-05-31T06:25:01.266Z,433.13
2018-05-31T06:26:01.259Z,427.50
2018-05-31T06:27:01.244Z,421.88
2018-05-31T06:28:01.240Z,433.13
2018-05-31T06:29:01.229Z,438.75
2018-05-31T06:30:01.225Z,444.38
2018-05-31T06:31:01.220Z,450.00
2018-05-31T06:32:01.205Z,450.00
2018-05-31T06:33:01.202Z,433.13
2018-05-31T06:34:01.196Z,438.75
2018-05-31T06:35:01.187Z,427.50
2018-05-31T06:36:01.179Z,438.75
2018-05-31T06:37:01.163Z,450.00
2018-05-31T06:38:01.164Z,466.88
2018-05-31T06:39:01.161Z,450.00
2018-05-31T06:40:01.147Z,427.50
2018-05-31T06:41:01.131Z,416.25
2018-05-31T06:42:01.131Z,410.63
2018-05-31T06:43:01.153Z,410.63
2018-05-31T06:44:01.118Z,405.00
2018-05-31T06:45:01.124Z,399.38
2018-05-31T06:46:01.109Z,399.38
2018-05-31T06:47:01.093Z,405.00
2018-05-31T06:48:01.087Z,405.00
2018-05-31T06:49:01.086Z,388.13
2018-05-31T06:50:01.077Z,354.38
2018-05-31T06:51:01.062Z,326.25
2018-05-31T06:52:01.061Z,315.00
2018-05-31T06:53:01.050Z,309.38
2018-05-31T06:54:01.047Z,309.38
2018-05-31T06:55:01.040Z,309.38
2018-05-31T06:56:01.035Z,298.13
2018-05-31T06:57:01.025Z,281.25
2018-05-31T06:58:01.014Z,275.63
2018-05-31T06:59:01.012Z,270.00
2018-05-31T07:00:01.003Z,270.00
2018-05-31T07:01:00.999Z,270.00
2018-05-31T07:02:00.983Z,270.00
2018-05-31T07:03:00.980Z,270.00
2018-05-31T07:04:00.973Z,264.38
2018-05-31T07:05:00.963Z,264.38
2018-05-31T07:06:00.958Z,264.38
2018-05-31T07:07:00.948Z,264.38
2018-05-31T07:08:00.949Z,264.38
2018-05-31T07:09:00.934Z,264.38
2018-05-31T07:10:00.932Z,264.38
2018-05-31T07:11:00.919Z,264.38
2018-05-31T07:12:00.914Z,275.63
2018-05-31T07:13:00.914Z,281.25
2018-05-31T07:14:00.902Z,275.63
2018-05-31T07:15:00.893Z,270.00
2018-05-31T07:16:00.901Z,270.00
2018-05-31T07:17:00.874Z,286.88
2018-05-31T07:18:00.871Z,292.50
2018-05-31T07:19:00.862Z,303.75
2018-05-31T07:20:00.877Z,309.38
2018-05-31T07:21:00.856Z,315.00
2018-05-31T07:22:00.849Z,315.00
2018-05-31T07:23:00.839Z,315.00
2018-05-31T07:24:00.836Z,315.00
2018-05-31T07:25:00.820Z,315.00
2018-05-31T07:26:00.833Z,320.63
2018-05-31T07:27:00.818Z,320.63
2018-05-31T07:28:00.803Z,320.63
2018-05-31T07:29:00.803Z,326.25
2018-05-31T07:30:00.803Z,326.25
2018-05-31T07:31:00.791Z,331.88
2018-05-31T07:32:00.783Z,331.88
2018-05-31T07:33:00.779Z,337.50
2018-05-31T07:34:00.789Z,343.13
2018-05-31T07:35:00.760Z,354.38
2018-05-31T07:36:00.756Z,371.25
2018-05-31T07:37:00.747Z,388.13
2018-05-31T07:38:00.763Z,410.63
2018-05-31T07:39:00.747Z,433.13
2018-05-31T07:40:00.737Z,444.38
2018-05-31T07:41:00.733Z,461.25
2018-05-31T07:42:00.730Z,478.13
2018-05-31T07:43:00.725Z,483.75
2018-05-31T07:44:00.718Z,489.38
2018-05-31T07:45:00.717Z,483.75
2018-05-31T07:46:00.708Z,478.13
2018-05-31T07:47:00.711Z,478.13
2018-05-31T07:48:00.705Z,483.75
2018-05-31T07:49:00.701Z,500.63
2018-05-31T07:50:00.695Z,528.75
2018-05-31T07:51:00.692Z,556.88
2018-05-31T07:52:00.686Z,573.75
2018-05-31T07:53:00.699Z,568.13
2018-05-31T07:54:00.684Z,523.13
2018-05-31T07:55:00.689Z,540.00
2018-05-31T07:56:00.681Z,523.13
2018-05-31T07:57:00.674Z,528.75
2018-05-31T07:58:00.693Z,540.00
2018-05-31T07:59:00.667Z,528.75
2018-05-31T08:00:00.660Z,579.38
2018-05-31T08:01:00.654Z,545.63
2018-05-31T08:02:00.669Z,517.50
2018-05-31T08:03:00.654Z,483.75
2018-05-31T08:04:00.650Z,466.88
2018-05-31T08:05:00.644Z,455.63
2018-05-31T08:06:00.727Z,455.63
2018-05-31T08:07:00.644Z,433.13
2018-05-31T08:08:00.651Z,450.00
2018-05-31T08:09:00.634Z,433.13
2018-05-31T08:10:00.638Z,416.25
2018-05-31T08:11:00.635Z,393.75
2018-05-31T08:12:00.626Z,388.13
2018-05-31T08:13:00.629Z,376.88
2018-05-31T08:14:00.632Z,382.50
2018-05-31T08:15:00.620Z,382.50
2018-05-31T08:16:00.632Z,393.75
2018-05-31T08:17:00.626Z,393.75
2018-05-31T08:18:00.614Z,405.00
2018-05-31T08:19:00.626Z,405.00
2018-05-31T08:20:00.620Z,410.63
2018-05-31T08:21:00.607Z,405.00
2018-05-31T08:22:00.616Z,399.38
2018-05-31T08:23:00.604Z,393.75
2018-05-31T08:24:00.606Z,393.75
2018-05-31T08:25:00.609Z,399.38
2018-05-31T08:26:00.599Z,399.38
2018-05-31T08:27:00.597Z,388.13
2018-05-31T08:28:00.594Z,382.50
2018-05-31T08:29:00.584Z,376.88
2018-05-31T08:30:00.588Z,376.88
2018-05-31T08:31:00.603Z,376.88
2018-05-31T08:32:00.593Z,376.88
2018-05-31T08:33:00.578Z,382.50
2018-05-31T08:34:00.584Z,388.13
2018-05-31T08:35:00.577Z,393.75
2018-05-31T08:36:00.578Z,388.13
2018-05-31T08:37:00.582Z,382.50
2018-05-31T08:38:00.575Z,393.75
2018-05-31T08:39:00.590Z,382.50
2018-05-31T08:40:00.568Z,399.38
2018-05-31T08:41:00.562Z,410.63
2018-05-31T08:42:00.558Z,416.25
2018-05-31T08:43:00.562Z,421.88
2018-05-31T08:44:00.605Z,427.50
2018-05-31T08:45:00.551Z,489.38
2018-05-31T08:46:00.552Z,517.50
2018-05-31T08:47:00.558Z,556.88
2018-05-31T08:48:00.548Z,523.13
2018-05-31T08:49:00.555Z,534.38
2018-05-31T08:50:00.546Z,545.63
2018-05-31T08:51:00.631Z,562.50
2018-05-31T08:52:00.553Z,585.00
2018-05-31T08:53:00.540Z,601.88
2018-05-31T08:54:00.542Z,624.38
2018-05-31T08:55:00.537Z,691.88
2018-05-31T08:56:00.536Z,787.50
2018-05-31T08:57:00.549Z,871.88
2018-05-31T08:58:00.533Z,933.75
2018-05-31T08:59:00.526Z,995.63
2018-05-31T09:00:00.524Z,1006.88
2018-05-31T09:01:00.524Z,1018.13
2018-05-31T09:02:00.520Z,1018.13
2018-05-31T09:03:00.521Z,1023.75
2018-05-31T09:04:00.514Z,1029.38
2018-05-31T09:05:00.507Z,1040.63
2018-05-31T09:06:00.508Z,1063.13
2018-05-31T09:07:00.507Z,1080.00
2018-05-31T09:08:00.508Z,1096.88
2018-05-31T09:09:00.501Z,1125.00
2018-05-31T09:10:00.508Z,1119.38
2018-05-31T09:11:00.508Z,1080.00
2018-05-31T09:12:00.501Z,1074.38
2018-05-31T09:13:00.503Z,1063.13
2018-05-31T09:14:00.497Z,1080.00
2018-05-31T09:15:00.494Z,1057.50
2018-05-31T09:16:00.494Z,1001.25
2018-05-31T09:17:00.488Z,1012.50
2018-05-31T09:18:00.494Z,1001.25
2018-05-31T09:19:00.494Z,990.00
2018-05-31T09:20:00.501Z,990.00
2018-05-31T09:21:00.483Z,1006.88
2018-05-31T09:22:00.496Z,1018.13
2018-05-31T09:23:00.488Z,1029.38
2018-05-31T09:24:00.482Z,1091.25
2018-05-31T09:25:00.482Z,1091.25
2018-05-31T09:26:00.479Z,1091.25
2018-05-31T09:27:00.476Z,1102.50
2018-05-31T09:28:00.473Z,1108.13
2018-05-31T09:29:00.476Z,1063.13
2018-05-31T09:30:00.467Z,973.13
2018-05-31T09:31:00.470Z,922.50
2018-05-31T09:32:00.467Z,933.75
2018-05-31T09:33:00.463Z,950.63
2018-05-31T09:34:00.463Z,990.00
2018-05-31T09:35:00.482Z,1023.75
2018-05-31T09:36:00.470Z,1063.13
2018-05-31T09:37:00.457Z,1091.25
2018-05-31T09:38:00.463Z,1130.63
2018-05-31T09:39:00.454Z,1164.38
2018-05-31T09:40:00.460Z,1192.50
2018-05-31T09:41:00.453Z,1231.88
2018-05-31T09:42:00.450Z,1260.00
2018-05-31T09:43:00.451Z,1293.75
2018-05-31T09:44:00.450Z,1316.25
2018-05-31T09:45:00.453Z,1316.25
2018-05-31T09:46:00.455Z,1327.50
2018-05-31T09:47:00.447Z,1327.50
2018-05-31T09:48:00.444Z,1327.50
2018-05-31T09:49:00.444Z,1344.38
2018-05-31T09:50:00.449Z,1344.38
2018-05-31T09:51:00.447Z,1344.38
2018-05-31T09:52:00.444Z,1321.88
2018-05-31T09:53:00.438Z,1321.88
2018-05-31T09:54:00.448Z,1327.50
2018-05-31T09:55:00.479Z,1333.13
2018-05-31T09:56:00.431Z,1316.25
2018-05-31T09:57:00.438Z,1299.38
2018-05-31T09:58:00.452Z,1276.88
2018-05-31T09:59:00.433Z,1254.38
2018-05-31T10:00:00.434Z,1248.75
2018-05-31T10:01:00.432Z,1231.88
2018-05-31T10:02:00.433Z,1220.63
2018-05-31T10:03:00.434Z,1209.38
2018-05-31T10:04:00.431Z,1181.25
2018-05-31T10:05:00.428Z,1158.75
2018-05-31T10:06:00.425Z,1130.63
2018-05-31T10:07:00.425Z,1231.88
2018-05-31T10:08:00.431Z,1186.88
2018-05-31T10:09:00.431Z,1119.38
2018-05-31T10:10:00.423Z,1175.63
2018-05-31T10:11:00.425Z,1096.88
2018-05-31T10:12:00.426Z,1023.75
2018-05-31T10:13:00.419Z,984.38
2018-05-31T10:14:00.413Z,950.63
2018-05-31T10:15:00.422Z,916.88
2018-05-31T10:16:00.425Z,922.50
2018-05-31T10:17:00.415Z,939.38
2018-05-31T10:18:00.416Z,973.13
2018-05-31T10:19:00.421Z,973.13
2018-05-31T10:20:00.419Z,990.00
2018-05-31T10:21:00.425Z,1051.88
2018-05-31T10:22:00.420Z,1040.63
2018-05-31T10:23:00.444Z,1074.38
2018-05-31T10:24:00.418Z,1153.13
2018-05-31T10:25:00.422Z,1198.13
2018-05-31T10:26:00.425Z,1293.75
2018-05-31T10:27:00.425Z,1524.38
2018-05-31T10:28:00.425Z,1119.38
2018-05-31T10:29:00.425Z,1046.25
2018-05-31T10:30:00.435Z,995.63
2018-05-31T10:31:00.435Z,1085.63
2018-05-31T10:32:00.444Z,1276.88
2018-05-31T10:33:00.433Z,1203.75
2018-05-31T10:34:00.435Z,1316.25
2018-05-31T10:35:00.441Z,1338.75
2018-05-31T10:36:00.438Z,2722.50
2018-05-31T10:37:00.441Z,2767.50
2018-05-31T10:38:00.438Z,2767.50
2018-05-31T10:39:00.444Z,2677.50
2018-05-31T10:40:00.437Z,2565.00
2018-05-31T10:41:00.438Z,1608.75
2018-05-31T10:42:00.448Z,2160.00
2018-05-31T10:43:00.445Z,1451.25
2018-05-31T10:44:00.448Z,2036.25
2018-05-31T10:45:00.451Z,2002.50
2018-05-31T10:46:00.452Z,1096.88
2018-05-31T10:47:00.448Z,1620.00
2018-05-31T10:48:00.448Z,1400.63
2018-05-31T10:49:00.501Z,1625.63
2018-05-31T10:50:00.454Z,1456.88
2018-05-31T10:51:00.465Z,1625.63
2018-05-31T10:52:00.454Z,1248.75
2018-05-31T10:53:00.461Z,1636.88
2018-05-31T10:54:00.457Z,1310.63
2018-05-31T10:55:00.458Z,1265.63
2018-05-31T10:56:00.464Z,1220.63
2018-05-31T10:57:00.461Z,1046.25
2018-05-31T10:58:00.462Z,961.88
2018-05-31T10:59:00.460Z,990.00
2018-05-31T11:00:00.464Z,1175.63
2018-05-31T11:01:00.468Z,1338.75
2018-05-31T11:02:00.461Z,1293.75
2018-05-31T11:03:00.465Z,1271.25
2018-05-31T11:04:00.464Z,1681.88
2018-05-31T11:05:00.467Z,2463.75
2018-05-31T11:06:00.467Z,2233.13
2018-05-31T11:07:00.473Z,2126.25
2018-05-31T11:08:00.464Z,2587.50
2018-05-31T11:09:00.460Z,1918.13
2018-05-31T11:10:00.467Z,4466.25
2018-05-31T11:11:00.461Z,5197.50
2018-05-31T11:12:00.470Z,6941.25
2018-05-31T11:13:00.464Z,5810.63
2018-05-31T11:14:00.464Z,5833.13
2018-05-31T11:15:00.482Z,5692.50
2018-05-31T11:16:00.471Z,5602.50
2018-05-31T11:17:00.477Z,5495.63
2018-05-31T11:18:00.473Z,5512.50
2018-05-31T11:19:00.489Z,5731.88
2018-05-31T11:20:01.089Z,5838.75
2018-05-31T11:21:00.503Z,5664.38
2018-05-31T11:22:00.496Z,5355.00
2018-05-31T11:23:00.518Z,5276.25
2018-05-31T11:24:00.502Z,5383.13
2018-05-31T11:25:00.518Z,5456.25
2018-05-31T11:26:00.515Z,5535.00
2018-05-31T11:27:00.530Z,5630.63
2018-05-31T11:28:00.534Z,5675.63
2018-05-31T11:29:00.545Z,5529.38
2018-05-31T11:30:00.543Z,5720.63
2018-05-31T11:31:00.563Z,5574.38
2018-05-31T11:32:00.562Z,2143.13
2018-05-31T11:33:00.571Z,1631.25
2018-05-31T11:34:00.576Z,5355.00
2018-05-31T11:35:00.579Z,5394.38
2018-05-31T11:36:00.585Z,4882.50
2018-05-31T11:37:00.595Z,1316.25
2018-05-31T11:38:00.604Z,1096.88
2018-05-31T11:39:00.614Z,860.63
2018-05-31T11:40:00.611Z,793.13
2018-05-31T11:41:00.628Z,720.00
2018-05-31T11:42:00.644Z,697.50
2018-05-31T11:43:00.635Z,742.50
2018-05-31T11:44:00.638Z,793.13
2018-05-31T11:45:00.644Z,883.13
2018-05-31T11:46:00.653Z,1130.63
2018-05-31T11:47:00.649Z,2536.88
2018-05-31T11:48:00.651Z,4995.00
2018-05-31T11:49:00.662Z,2182.50
2018-05-31T11:50:00.653Z,4972.50
2018-05-31T11:51:00.652Z,4533.75
2018-05-31T11:52:00.662Z,5731.88
2018-05-31T11:53:00.662Z,4775.63
2018-05-31T11:54:00.663Z,2058.75
2018-05-31T11:55:00.675Z,1327.50
2018-05-31T11:56:00.675Z,1445.63
2018-05-31T11:57:00.687Z,1468.13
2018-05-31T11:58:00.681Z,5951.25
2018-05-31T11:59:00.683Z,5613.75
2018-05-31T12:00:00.684Z,5400.00
2018-05-31T12:01:00.691Z,5433.75
2018-05-31T12:02:00.700Z,5771.25
2018-05-31T12:03:00.703Z,2649.38
2018-05-31T12:04:00.697Z,1411.88
2018-05-31T12:05:00.708Z,1395.00
2018-05-31T12:06:00.727Z,1524.38
2018-05-31T12:07:00.719Z,2244.38
2018-05-31T12:08:00.729Z,5771.25
2018-05-31T12:09:00.723Z,5906.25
2018-05-31T12:10:00.726Z,2328.75
2018-05-31T12:11:00.732Z,2081.25
2018-05-31T12:12:00.736Z,5833.13
2018-05-31T12:13:00.745Z,1923.75
2018-05-31T12:14:00.748Z,1440.00
2018-05-31T12:15:00.748Z,1507.50
2018-05-31T12:16:00.755Z,2205.00
2018-05-31T12:17:00.754Z,1485.00
2018-05-31T12:18:00.761Z,1333.13
2018-05-31T12:19:00.761Z,3065.63
2018-05-31T12:20:00.765Z,1755.00
2018-05-31T12:21:00.767Z,1715.63
2018-05-31T12:22:00.772Z,1901.25
2018-05-31T12:23:00.770Z,2795.63
2018-05-31T12:24:00.780Z,1828.13
2018-05-31T12:25:00.778Z,1963.13
2018-05-31T12:26:00.777Z,2244.38
2018-05-31T12:27:00.781Z,1985.63
2018-05-31T12:28:00.780Z,2137.50
2018-05-31T12:29:00.786Z,1800.00
2018-05-31T12:30:00.783Z,1890.00
2018-05-31T12:31:00.788Z,2379.38
2018-05-31T12:32:00.796Z,1693.13
2018-05-31T12:33:00.796Z,1411.88
2018-05-31T12:34:00.789Z,1361.25
2018-05-31T12:35:00.801Z,1338.75
2018-05-31T12:36:00.806Z,1327.50